Annabella, Utah
Current Conditions -  °F | °C
As of 2:15 PM on Sunday 23 Nov 2014 (Local Time) from KDTA Reporting Station
Clear Clear  
Wind Chill: 30°   Ceiling: Unl
Heat Index: 38°   Visibility: 10mi
Dew Point: 20°   Wind: 13mph
Humidity: 47%   Direction: 320°NW
Pressure: 30.25"   Gusts: 18mph
Location:  38.71°N, 112.06°W
Report Text: KDTA 232115Z AUTO 32011G16KT 10SM CLR 04/M07 A3025 RMK AO1 T00351069
Loading
Personal Weather Stations






























Interactive Weather Map New forecast layout! Learn more

10-Day Weather Forecast

Advertisements
Track Severe Weather on mobile